^^
Your Local Weather - Clay, NY Station Historical Data
Daily Summary for November 3, 2017 Units:  English    Metric   Both
« Previous Day
Next Day »
Daily Weekly Monthly Yearly Custom
  High: Low: Average:
Temperature: 64.9 °F 37.1 °F 52.1 °F
Dew Point: 54.7 °F 33.6 °F 45.2 °F
Humidity: 92% 58% 78%
Wind Speed: 6.0mph 0.0mph 2mph
Wind Gust: 11.0mph - -
Wind- - West
Pressure: 30.29 in 29.86 in -
Precipitation: 0.16 in    
Historical Graphs
 
 
Tabular Data for November 3, 2017
Time Temperature Dew Point Pressure Wind Wind Speed Wind Gust Humidity Rainfall Rate (Hourly) solar
00:02 64.9 °F 49.8 °F 29.95 in WSW 5.0 mph 6.0 mph 58% 0.00 in 0 W/m2
00:08 64.7 °F 50.0 °F 29.95 in SSW 5.0 mph 6.0 mph 59% 0.00 in 0 W/m2
00:16 64.6 °F 49.9 °F 29.95 in SW 4.0 mph 5.0 mph 59% 0.00 in 0 W/m2
00:22 64.7 °F 49.6 °F 29.94 in SSW 5.0 mph 5.0 mph 58% 0.00 in 0 W/m2
00:28 64.7 °F 49.6 °F 29.94 in South 3.0 mph 5.0 mph 58% 0.00 in 0 W/m2
00:34 64.7 °F 49.6 °F 29.94 in SW 3.0 mph 5.0 mph 58% 0.00 in 0 W/m2
00:40 64.6 °F 49.5 °F 29.94 in SSW 3.0 mph 3.0 mph 58% 0.00 in 0 W/m2
00:46 64.5 °F 49.8 °F 29.94 in SW 3.0 mph 3.0 mph 59% 0.00 in 0 W/m2
00:52 64.4 °F 49.8 °F 29.94 in SSW 3.0 mph 3.0 mph 59% 0.00 in 0 W/m2
00:58 64.2 °F 50.0 °F 29.94 in SW 3.0 mph 6.0 mph 60% 0.00 in 0 W/m2
01:02 64.1 °F 49.9 °F 29.94 in SSW 3.0 mph 4.0 mph 60% 0.00 in 0 W/m2
01:08 64.0 °F 50.3 °F 29.94 in SW 2.0 mph 4.0 mph 61% 0.00 in 0 W/m2
01:14 63.8 °F 50.5 °F 29.93 in WSW 1.0 mph 2.0 mph 62% 0.00 in 0 W/m2
01:20 63.7 °F 50.9 °F 29.93 in South 2.0 mph 2.0 mph 63% 0.00 in 0 W/m2
01:26 63.8 °F 51.4 °F 29.92 in SW 3.0 mph 3.0 mph 64% 0.00 in 0 W/m2
01:32 63.9 °F 51.5 °F 29.92 in SW 3.0 mph 6.0 mph 64% 0.00 in 0 W/m2
01:38 64.0 °F 52.0 °F 29.92 in SSW 3.0 mph 6.0 mph 65% 0.00 in 0 W/m2
01:44 64.2 °F 52.2 °F 29.92 in SSW 4.0 mph 7.0 mph 65% 0.00 in 0 W/m2
01:50 64.3 °F 52.3 °F 29.92 in South 4.0 mph 4.0 mph 65% 0.00 in 0 W/m2
01:56 64.2 °F 52.6 °F 29.92 in South 4.0 mph 9.0 mph 66% 0.00 in 0 W/m2
02:02 64.3 °F 52.7 °F 29.91 in SW 4.0 mph 5.0 mph 66% 0.00 in 0 W/m2
02:08 64.3 °F 52.7 °F 29.91 in SW 4.0 mph 6.0 mph 66% 0.00 in 0 W/m2
02:14 64.5 °F 52.9 °F 29.90 in SSW 5.0 mph 7.0 mph 66% 0.00 in 0 W/m2
02:20 64.3 °F 52.7 °F 29.90 in SW 5.0 mph 5.0 mph 66% 0.00 in 0 W/m2
02:26 64.5 °F 52.9 °F 29.90 in SSE 5.0 mph 6.0 mph 66% 0.00 in 0 W/m2
02:32 64.6 °F 53.0 °F 29.90 in SW 5.0 mph 10.0 mph 66% 0.00 in 0 W/m2
02:38 64.6 °F 53.0 °F 29.90 in SSE 5.0 mph 10.0 mph 66% 0.00 in 0 W/m2
02:44 64.6 °F 53.0 °F 29.89 in SSW 5.0 mph 7.0 mph 66% 0.00 in 0 W/m2
02:50 64.7 °F 53.1 °F 29.89 in SSE 6.0 mph 6.0 mph 66% 0.00 in 0 W/m2
02:56 64.8 °F 53.2 °F 29.89 in SSW 6.0 mph 8.0 mph 66% 0.00 in 0 W/m2
03:02 64.6 °F 53.0 °F 29.89 in South 5.0 mph 5.0 mph 66% 0.00 in 0 W/m2
03:08 64.5 °F 52.9 °F 29.88 in South 4.0 mph 5.0 mph 66% 0.00 in 0 W/m2
03:14 64.5 °F 53.3 °F 29.88 in South 4.0 mph 6.0 mph 67% 0.00 in 0 W/m2
03:20 64.3 °F 53.1 °F 29.88 in SSE 4.0 mph 4.0 mph 67% 0.00 in 0 W/m2
03:26 64.3 °F 53.1 °F 29.87 in South 4.0 mph 8.0 mph 67% 0.00 in 0 W/m2
03:32 64.3 °F 53.1 °F 29.86 in SSW 4.0 mph 4.0 mph 67% 0.00 in 0 W/m2
03:38 64.0 °F 53.2 °F 29.86 in South 4.0 mph 4.0 mph 68% 0.00 in 0 W/m2
03:44 63.8 °F 53.0 °F 29.86 in SSE 4.0 mph 9.0 mph 68% 0.00 in 0 W/m2
03:50 63.6 °F 52.8 °F 29.86 in SSE 4.0 mph 4.0 mph 68% 0.00 in 0 W/m2
03:56 63.7 °F 53.3 °F 29.86 in SW 4.0 mph 7.0 mph 69% 0.00 in 0 W/m2
04:02 63.7 °F 53.3 °F 29.87 in South 3.0 mph 4.0 mph 69% 0.00 in 0 W/m2
04:08 63.6 °F 53.2 °F 29.87 in SW 2.0 mph 6.0 mph 69% 0.00 in 0 W/m2
04:14 63.5 °F 53.5 °F 29.87 in SSW 2.0 mph 4.0 mph 70% 0.00 in 0 W/m2
04:56 60.6 °F 54.7 °F 29.90 in NW 2.0 mph 2.0 mph 81% 0.10 in 0 W/m2
05:02 59.7 °F 54.5 °F 29.91 in WNW 2.0 mph 2.0 mph 83% 0.05 in 0 W/m2
05:08 59.2 °F 54.7 °F 29.92 in West 1.0 mph 3.0 mph 85% 0.10 in 0 W/m2
05:14 58.8 °F 54.6 °F 29.91 in West 1.0 mph 1.0 mph 86% 0.08 in 0 W/m2
05:20 58.5 °F 54.6 °F 29.91 in Calm     87% 0.07 in 0 W/m2
05:26 58.2 °F 54.7 °F 29.91 in Calm     88% 0.11 in 0 W/m2
05:32 58.0 °F 54.5 °F 29.90 in Calm     88% 0.05 in 0 W/m2
05:38 57.8 °F 54.6 °F 29.90 in Calm   2.0 mph 89% 0.04 in 0 W/m2
05:44 57.6 °F 54.4 °F 29.90 in Calm   2.0 mph 89% 0.04 in 0 W/m2
05:50 57.5 °F 54.3 °F 29.89 in Calm   1.0 mph 89% 0.04 in 0 W/m2
05:56 57.4 °F 54.5 °F 29.89 in West 1.0 mph 1.0 mph 90% 0.00 in 0 W/m2
06:02 57.3 °F 54.4 °F 29.89 in Calm   2.0 mph 90% 0.00 in 0 W/m2
06:08 57.3 °F 54.4 °F 29.90 in Calm   2.0 mph 90% 0.00 in 0 W/m2
06:14 57.3 °F 54.4 °F 29.90 in West 1.0 mph 1.0 mph 90% 0.00 in 0 W/m2
06:20 57.3 °F 54.4 °F 29.90 in Calm     90% 0.00 in 0 W/m2
06:26 57.3 °F 54.4 °F 29.90 in West 1.0 mph 3.0 mph 90% 0.00 in 0 W/m2
06:32 57.3 °F 54.7 °F 29.90 in West 1.0 mph 1.0 mph 91% 0.00 in 0 W/m2
06:38 57.2 °F 54.6 °F 29.90 in Calm   1.0 mph 91% 0.00 in 0 W/m2
06:44 57.2 °F 54.6 °F 29.90 in Calm     91% 0.00 in 0 W/m2
06:50 57.0 °F 54.4 °F 29.90 in Calm     91% 0.00 in 0 W/m2
06:56 56.7 °F 54.1 °F 29.90 in Calm     91% 0.00 in 0 W/m2
07:02 56.7 °F 54.1 °F 29.90 in Calm   1.0 mph 91% 0.00 in 0 W/m2
07:08 56.8 °F 54.2 °F 29.91 in Calm   1.0 mph 91% 0.00 in 0 W/m2
07:14 56.9 °F 54.3 °F 29.91 in Calm     91% 0.00 in 0 W/m2
07:20 57.0 °F 54.4 °F 29.91 in Calm     91% 0.00 in 0 W/m2
07:26 57.0 °F 54.4 °F 29.90 in Calm     91% 0.00 in 0 W/m2
07:32 57.0 °F 54.4 °F 29.90 in West 1.0 mph 2.0 mph 91% 0.00 in 0 W/m2
07:38 57.1 °F 54.5 °F 29.91 in West 1.0 mph 2.0 mph 91% 0.00 in 0 W/m2
07:44 57.1 °F 54.5 °F 29.91 in Calm   1.0 mph 91% 0.00 in 0 W/m2
07:50 57.1 °F 54.5 °F 29.91 in Calm     91% 0.00 in 0 W/m2
07:56 57.1 °F 54.5 °F 29.92 in Calm     91% 0.00 in 0 W/m2
08:02 57.1 °F 54.5 °F 29.92 in Calm     91% 0.00 in 0 W/m2
08:08 57.1 °F 54.5 °F 29.92 in Calm   2.0 mph 91% 0.00 in 0 W/m2
08:14 57.1 °F 54.5 °F 29.93 in West 1.0 mph 2.0 mph 91% 0.00 in 0 W/m2
08:20 57.0 °F 54.4 °F 29.93 in West 1.0 mph 1.0 mph 91% 0.00 in 5 W/m2
08:26 56.9 °F 54.3 °F 29.93 in West 1.0 mph 4.0 mph 91% 0.00 in 7 W/m2
08:32 56.8 °F 54.5 °F 29.93 in West 1.0 mph 2.0 mph 92% 0.00 in 5 W/m2
08:38 56.7 °F 54.4 °F 29.93 in NW 1.0 mph 3.0 mph 92% 0.00 in 9 W/m2
08:44 56.4 °F 53.8 °F 29.94 in NW 2.0 mph 3.0 mph 91% 0.00 in 7 W/m2
08:50 56.0 °F 53.4 °F 29.95 in NW 2.0 mph 4.0 mph 91% 0.00 in 14 W/m2
09:02 55.1 °F 52.5 °F 29.95 in NNW 2.0 mph 3.0 mph 91% 0.00 in 9 W/m2
09:08 54.9 °F 52.0 °F 29.96 in NW 2.0 mph 3.0 mph 90% 0.00 in 7 W/m2
09:14 54.5 °F 51.6 °F 29.96 in NW 3.0 mph 4.0 mph 90% 0.00 in 14 W/m2
09:20 53.9 °F 51.0 °F 29.97 in North 4.0 mph 4.0 mph 90% 0.00 in 16 W/m2
09:26 53.2 °F 50.3 °F 29.97 in NW 4.0 mph 5.0 mph 90% 0.00 in 19 W/m2
09:32 53.0 °F 50.1 °F 29.98 in NW 3.0 mph 4.0 mph 90% 0.00 in 21 W/m2
09:38 52.6 °F 49.8 °F 29.98 in NNW 2.0 mph 4.0 mph 90% 0.00 in 19 W/m2
09:44 52.4 °F 49.6 °F 29.98 in NW 3.0 mph 4.0 mph 90% 0.00 in 25 W/m2
09:50 52.3 °F 49.5 °F 29.98 in NW 1.0 mph 1.0 mph 90% 0.00 in 18 W/m2
09:56 52.1 °F 49.3 °F 29.98 in NW 1.0 mph 4.0 mph 90% 0.00 in 18 W/m2
10:02 51.9 °F 49.1 °F 29.99 in NW 2.0 mph 3.0 mph 90% 0.00 in 19 W/m2
10:08 51.7 °F 49.2 °F 30.00 in NW 1.0 mph 3.0 mph 91% 0.00 in 26 W/m2
10:14 51.5 °F 49.0 °F 30.00 in WNW 1.0 mph 2.0 mph 91% 0.00 in 18 W/m2
10:20 51.4 °F 48.9 °F 30.00 in WNW 1.0 mph 3.0 mph 91% 0.00 in 21 W/m2
10:26 51.2 °F 48.7 °F 30.01 in WNW 2.0 mph 4.0 mph 91% 0.00 in 37 W/m2
10:32 51.1 °F 48.6 °F 30.01 in NW 3.0 mph 3.0 mph 91% 0.00 in 33 W/m2
10:38 51.0 °F 48.8 °F 30.01 in NW 2.0 mph 3.0 mph 92% 0.07 in 28 W/m2
10:44 50.9 °F 48.7 °F 30.01 in NW 1.0 mph 3.0 mph 92% 0.07 in 33 W/m2
10:50 50.8 °F 48.6 °F 30.01 in NW 2.0 mph 2.0 mph 92% 0.07 in 23 W/m2
10:56 50.8 °F 48.6 °F 30.01 in NW 2.0 mph 2.0 mph 92% 0.11 in 51 W/m2
11:02 50.8 °F 48.6 °F 30.01 in NW 2.0 mph 2.0 mph 92% 0.05 in 46 W/m2
11:08 50.7 °F 48.5 °F 30.02 in NW 2.0 mph 4.0 mph 92% 0.04 in 25 W/m2
11:14 50.6 °F 48.4 °F 30.03 in WNW 3.0 mph 6.0 mph 92% 0.04 in 23 W/m2
11:20 50.5 °F 48.3 °F 30.03 in NW 2.0 mph 2.0 mph 92% 0.04 in 51 W/m2
11:26 50.6 °F 48.4 °F 30.03 in NW 2.0 mph 2.0 mph 92% 0.00 in 70 W/m2
11:32 50.6 °F 48.4 °F 30.03 in NW 2.0 mph 2.0 mph 92% 0.00 in 23 W/m2
11:38 50.5 °F 48.3 °F 30.03 in NW 2.0 mph 2.0 mph 92% 0.00 in 44 W/m2
11:44 50.5 °F 48.3 °F 30.03 in NW 1.0 mph 2.0 mph 92% 0.00 in 51 W/m2
11:50 50.4 °F 48.2 °F 30.04 in NW 2.0 mph 3.0 mph 92% 0.00 in 67 W/m2
11:56 50.4 °F 47.9 °F 30.04 in NW 2.0 mph 5.0 mph 91% 0.00 in 69 W/m2
12:02 50.5 °F 48.0 °F 30.04 in NW 2.0 mph 4.0 mph 91% 0.00 in 46 W/m2
12:08 50.5 °F 48.0 °F 30.04 in NW 1.0 mph 4.0 mph 91% 0.00 in 49 W/m2
12:14 50.3 °F 47.5 °F 30.05 in WNW 2.0 mph 4.0 mph 90% 0.00 in 53 W/m2
12:20 50.2 °F 47.4 °F 30.04 in WNW 2.0 mph 3.0 mph 90% 0.00 in 90 W/m2
12:26 50.3 °F 47.2 °F 30.05 in NW 3.0 mph 4.0 mph 89% 0.00 in 116 W/m2
12:32 50.5 °F 47.4 °F 30.05 in WNW 4.0 mph 5.0 mph 89% 0.00 in 100 W/m2
12:38 50.6 °F 46.9 °F 30.05 in NW 3.0 mph 5.0 mph 87% 0.00 in 98 W/m2
12:44 50.6 °F 46.6 °F 30.05 in WNW 3.0 mph 3.0 mph 86% 0.00 in 88 W/m2
12:50 50.6 °F 46.3 °F 30.05 in NW 4.0 mph 4.0 mph 85% 0.00 in 86 W/m2
12:56 50.6 °F 45.6 °F 30.06 in WNW 3.0 mph 5.0 mph 83% 0.00 in 142 W/m2
13:02 51.0 °F 46.3 °F 30.06 in NNW 3.0 mph 3.0 mph 84% 0.00 in 118 W/m2
13:08 51.0 °F 46.0 °F 30.06 in NNW 2.0 mph 4.0 mph 83% 0.00 in 102 W/m2
13:14 51.0 °F 46.0 °F 30.06 in NW 2.0 mph 4.0 mph 83% 0.00 in 113 W/m2
13:20 51.0 °F 45.7 °F 30.07 in WNW 3.0 mph 3.0 mph 82% 0.00 in 179 W/m2
13:26 51.1 °F 44.8 °F 30.07 in NNW 4.0 mph 4.0 mph 79% 0.00 in 144 W/m2
13:32 51.2 °F 43.9 °F 30.06 in NW 4.0 mph 10.0 mph 76% 0.00 in 158 W/m2
13:38 51.2 °F 42.8 °F 30.07 in WNW 3.0 mph 10.0 mph 73% 0.00 in 186 W/m2
13:44 51.4 °F 42.7 °F 30.07 in NW 4.0 mph 4.0 mph 72% 0.00 in 288 W/m2
13:50 51.7 °F 43.0 °F 30.07 in NW 4.0 mph 4.0 mph 72% 0.00 in 225 W/m2
13:56 51.7 °F 42.6 °F 30.08 in WNW 4.0 mph 4.0 mph 71% 0.00 in 179 W/m2
14:02 51.4 °F 42.3 °F 30.08 in WNW 4.0 mph 5.0 mph 71% 0.00 in 153 W/m2
14:08 51.3 °F 41.5 °F 30.08 in WNW 4.0 mph 9.0 mph 69% 0.00 in 149 W/m2
14:14 51.2 °F 41.4 °F 30.08 in NW 4.0 mph 6.0 mph 69% 0.00 in 204 W/m2
14:20 51.3 °F 41.5 °F 30.08 in NW 4.0 mph 4.0 mph 69% 0.00 in 169 W/m2
14:26 51.2 °F 41.4 °F 30.09 in WNW 4.0 mph 7.0 mph 69% 0.00 in 104 W/m2
14:32 51.0 °F 41.2 °F 30.09 in West 4.0 mph 7.0 mph 69% 0.00 in 114 W/m2
14:38 50.9 °F 40.3 °F 30.09 in WNW 4.0 mph 7.0 mph 67% 0.00 in 132 W/m2
14:44 50.9 °F 40.3 °F 30.09 in NW 3.0 mph 5.0 mph 67% 0.00 in 139 W/m2
14:50 51.0 °F 41.2 °F 30.09 in WNW 3.0 mph 3.0 mph 69% 0.00 in 137 W/m2
14:58 51.1 °F 41.3 °F 30.09 in NW 3.0 mph 5.0 mph 69% 0.00 in 151 W/m2
15:04 51.2 °F 41.7 °F 30.10 in WNW 4.0 mph 4.0 mph 70% 0.00 in 174 W/m2
15:08 51.2 °F 41.7 °F 30.10 in NW 3.0 mph 4.0 mph 70% 0.00 in 105 W/m2
15:14 51.2 °F 41.4 °F 30.11 in NW 3.0 mph 4.0 mph 69% 0.00 in 86 W/m2
15:20 51.0 °F 40.8 °F 30.11 in NW 3.0 mph 3.0 mph 68% 0.00 in 100 W/m2
15:26 50.9 °F 41.1 °F 30.11 in WNW 4.0 mph 4.0 mph 69% 0.00 in 76 W/m2
15:32 50.7 °F 41.3 °F 30.12 in NW 4.0 mph 4.0 mph 70% 0.00 in 69 W/m2
15:38 50.5 °F 41.1 °F 30.12 in NW 4.0 mph 7.0 mph 70% 0.00 in 49 W/m2
15:44 50.5 °F 41.4 °F 30.12 in NW 3.0 mph 6.0 mph 71% 0.00 in 67 W/m2
15:50 50.4 °F 41.7 °F 30.13 in NW 2.0 mph 2.0 mph 72% 0.00 in 49 W/m2
15:56 50.4 °F 41.3 °F 30.13 in WNW 2.0 mph 7.0 mph 71% 0.00 in 65 W/m2
16:02 50.4 °F 41.7 °F 30.13 in NW 2.0 mph 6.0 mph 72% 0.00 in 35 W/m2
16:08 50.3 °F 41.3 °F 30.13 in WNW 3.0 mph 6.0 mph 71% 0.00 in 25 W/m2
16:16 50.2 °F 41.5 °F 30.14 in WNW 2.0 mph 3.0 mph 72% 0.00 in 12 W/m2
16:22 50.1 °F 41.4 °F 30.14 in NW 2.0 mph 2.0 mph 72% 0.00 in 21 W/m2
16:28 50.1 °F 40.3 °F 30.14 in WNW 4.0 mph 11.0 mph 69% 0.00 in 58 W/m2
16:34 50.2 °F 40.4 °F 30.15 in NW 4.0 mph 7.0 mph 69% 0.00 in 98 W/m2
16:40 50.3 °F 40.1 °F 30.15 in NW 4.0 mph 4.0 mph 68% 0.00 in 51 W/m2
16:46 50.0 °F 39.5 °F 30.15 in WNW 4.0 mph 4.0 mph 67% 0.00 in 51 W/m2
16:52 49.9 °F 39.4 °F 30.16 in WNW 4.0 mph 6.0 mph 67% 0.00 in 37 W/m2
16:58 49.8 °F 38.9 °F 30.16 in WNW 4.0 mph 6.0 mph 66% 0.00 in 37 W/m2
17:04 49.6 °F 38.7 °F 30.16 in NW 4.0 mph 4.0 mph 66% 0.00 in 26 W/m2
17:10 49.4 °F 38.9 °F 30.16 in WNW 3.0 mph 5.0 mph 67% 0.00 in 28 W/m2
17:16 49.3 °F 38.8 °F 30.17 in NW 3.0 mph 5.0 mph 67% 0.00 in 35 W/m2
17:22 49.4 °F 37.7 °F 30.17 in WNW 3.0 mph 7.0 mph 64% 0.00 in 28 W/m2
17:28 49.4 °F 38.1 °F 30.17 in West 3.0 mph 7.0 mph 65% 0.00 in 35 W/m2
17:34 49.3 °F 37.6 °F 30.17 in WNW 3.0 mph 4.0 mph 64% 0.00 in 21 W/m2
17:40 49.0 °F 37.3 °F 30.17 in WNW 3.0 mph 3.0 mph 64% 0.00 in 16 W/m2
17:46 48.9 °F 37.3 °F 30.17 in West 3.0 mph 8.0 mph 64% 0.00 in 11 W/m2
17:52 48.6 °F 37.4 °F 30.18 in WNW 4.0 mph 6.0 mph 65% 0.00 in 5 W/m2
17:58 48.4 °F 37.2 °F 30.18 in WNW 3.0 mph 6.0 mph 65% 0.00 in 0 W/m2
18:04 48.2 °F 36.6 °F 30.19 in WNW 2.0 mph 5.0 mph 64% 0.00 in 0 W/m2
18:10 48.0 °F 36.4 °F 30.19 in WNW 2.0 mph 2.0 mph 64% 0.00 in 0 W/m2
18:16 47.9 °F 36.7 °F 30.19 in NW 2.0 mph 5.0 mph 65% 0.00 in 0 W/m2
18:22 47.6 °F 36.8 °F 30.19 in NW 1.0 mph 1.0 mph 66% 0.00 in 0 W/m2
18:28 47.3 °F 36.9 °F 30.20 in NW 1.0 mph 1.0 mph 67% 0.00 in 0 W/m2
18:34 47.0 °F 37.0 °F 30.20 in NW 1.0 mph 2.0 mph 68% 0.00 in 0 W/m2
18:40 46.7 °F 37.1 °F 30.20 in NW 1.0 mph 1.0 mph 69% 0.00 in 0 W/m2
18:46 46.4 °F 37.1 °F 30.20 in Calm   1.0 mph 70% 0.00 in 0 W/m2
18:52 46.2 °F 37.0 °F 30.21 in Calm   3.0 mph 70% 0.00 in 0 W/m2
18:58 46.1 °F 37.2 °F 30.22 in NW 1.0 mph 3.0 mph 71% 0.00 in 0 W/m2
19:04 45.9 °F 37.0 °F 30.22 in NW 1.0 mph 3.0 mph 71% 0.00 in 0 W/m2
19:10 45.9 °F 37.4 °F 30.22 in NW 1.0 mph 3.0 mph 72% 0.00 in 0 W/m2
19:16 45.9 °F 37.4 °F 30.22 in Calm   3.0 mph 72% 0.00 in 0 W/m2
19:22 45.6 °F 37.1 °F 30.23 in Calm     72% 0.00 in 0 W/m2
19:28 45.2 °F 37.1 °F 30.23 in Calm     73% 0.00 in 0 W/m2
19:34 44.7 °F 36.9 °F 30.23 in Calm     74% 0.00 in 0 W/m2
19:40 44.4 °F 37.0 °F 30.23 in Calm     75% 0.00 in 0 W/m2
19:46 44.3 °F 36.9 °F 30.23 in Calm   3.0 mph 75% 0.00 in 0 W/m2
19:52 44.4 °F 37.0 °F 30.23 in NW 1.0 mph 1.0 mph 75% 0.00 in 0 W/m2
19:58 44.4 °F 37.0 °F 30.24 in Calm   1.0 mph 75% 0.00 in 0 W/m2
20:04 44.5 °F 37.1 °F 30.24 in Calm   1.0 mph 75% 0.00 in 0 W/m2
20:10 44.6 °F 36.8 °F 30.24 in NW 1.0 mph 1.0 mph 74% 0.00 in 0 W/m2
20:16 44.5 °F 36.7 °F 30.24 in NW 1.0 mph 2.0 mph 74% 0.00 in 0 W/m2
20:22 44.1 °F 36.7 °F 30.24 in Calm     75% 0.00 in 0 W/m2
20:28 43.7 °F 36.6 °F 30.24 in Calm   2.0 mph 76% 0.00 in 0 W/m2
20:34 43.7 °F 36.3 °F 30.24 in NW 1.0 mph 1.0 mph 75% 0.00 in 0 W/m2
20:40 43.8 °F 36.4 °F 30.24 in NW 1.0 mph 1.0 mph 75% 0.00 in 0 W/m2
20:46 43.7 °F 36.3 °F 30.24 in Calm   1.0 mph 75% 0.00 in 0 W/m2
20:52 43.3 °F 35.9 °F 30.25 in Calm     75% 0.00 in 0 W/m2
20:58 43.0 °F 36.0 °F 30.24 in Calm     76% 0.00 in 0 W/m2
21:04 43.0 °F 36.3 °F 30.24 in Calm     77% 0.00 in 0 W/m2
21:10 42.7 °F 36.0 °F 30.25 in Calm     77% 0.00 in 0 W/m2
21:16 42.4 °F 35.7 °F 30.25 in Calm     77% 0.00 in 0 W/m2
21:22 42.0 °F 35.6 °F 30.25 in Calm     78% 0.00 in 0 W/m2
21:28 41.5 °F 35.2 °F 30.25 in Calm     78% 0.00 in 0 W/m2
21:34 41.0 °F 35.0 °F 30.26 in Calm     79% 0.00 in 0 W/m2
21:40 40.6 °F 34.9 °F 30.26 in Calm     80% 0.00 in 0 W/m2
21:46 40.2 °F 34.8 °F 30.27 in Calm     81% 0.00 in 0 W/m2
21:52 40.0 °F 34.9 °F 30.27 in Calm     82% 0.00 in 0 W/m2
21:58 39.8 °F 35.1 °F 30.27 in Calm     83% 0.00 in 0 W/m2
22:04 39.5 °F 34.8 °F 30.27 in Calm     83% 0.00 in 0 W/m2
22:10 39.2 °F 34.5 °F 30.28 in Calm     83% 0.00 in 0 W/m2
22:16 38.9 °F 34.2 °F 30.28 in Calm     83% 0.00 in 0 W/m2
22:22 38.8 °F 34.4 °F 30.28 in Calm     84% 0.00 in 0 W/m2
22:28 38.7 °F 34.6 °F 30.27 in Calm     85% 0.00 in 0 W/m2
22:34 38.6 °F 34.5 °F 30.28 in Calm     85% 0.00 in 0 W/m2
22:40 38.3 °F 34.2 °F 30.28 in Calm     85% 0.00 in 0 W/m2
22:46 38.0 °F 34.2 °F 30.28 in Calm     86% 0.00 in 0 W/m2
22:52 37.7 °F 33.9 °F 30.28 in Calm     86% 0.00 in 0 W/m2
22:58 37.6 °F 33.8 °F 30.28 in Calm     86% 0.00 in 0 W/m2
23:04 37.7 °F 34.2 °F 30.29 in Calm     87% 0.00 in 0 W/m2
23:10 37.6 °F 34.1 °F 30.29 in Calm     87% 0.00 in 0 W/m2
23:22 37.8 °F 34.3 °F 30.29 in Calm     87% 0.00 in 0 W/m2
23:28 37.7 °F 34.2 °F 30.29 in Calm     87% 0.00 in 0 W/m2
23:30 37.7 °F 34.2 °F 30.29 in Calm     87% 0.00 in 0 W/m2
23:36 37.5 °F 34.0 °F 30.28 in Calm     87% 0.00 in 0 W/m2
23:40 37.4 °F 33.9 °F 30.28 in Calm     87% 0.00 in 0 W/m2
23:46 37.2 °F 33.7 °F 30.28 in Calm     87% 0.00 in 0 W/m2
23:48 37.1 °F 33.6 °F 30.28 in Calm     87% 0.00 in 0 W/m2
23:54 37.2 °F 34.0 °F 30.29 in Calm     88% 0.00 in 0 W/m2
23:56 37.3 °F 34.1 °F 30.29 in Calm     88% 0.00 in 0 W/m2
23:58 37.3 °F 34.1 °F 30.29 in Calm     88% 0.00 in 0 W/m2
Country Meadow, Clay, NY, USA
Compliments of Weather Underground - 2 mb